createdAt,value
2018-03-07T00:01:14.063Z,84.60
2018-03-07T00:03:41.137Z,84.10
2018-03-07T00:06:07.967Z,84.10
2018-03-07T00:08:35.213Z,84.20
2018-03-07T00:11:02.075Z,84.20
2018-03-07T00:13:29.379Z,84.10
2018-03-07T00:15:56.218Z,84.10
2018-03-07T00:18:23.112Z,84.10
2018-03-07T00:20:50.044Z,84.20
2018-03-07T00:23:16.923Z,84.00
2018-03-07T00:25:43.807Z,84.40
2018-03-07T00:28:10.652Z,84.60
2018-03-07T00:30:37.572Z,84.30
2018-03-07T00:33:04.438Z,84.10
2018-03-07T00:35:31.400Z,84.00
2018-03-07T00:37:58.250Z,84.00
2018-03-07T00:40:25.119Z,83.80
2018-03-07T00:42:51.993Z,83.60
2018-03-07T00:45:18.831Z,83.50
2018-03-07T00:47:45.680Z,83.40
2018-03-07T00:50:12.648Z,83.90
2018-03-07T00:52:39.498Z,84.00
2018-03-07T00:55:06.362Z,83.80
2018-03-07T00:57:33.209Z,83.60
2018-03-07T01:00:00.503Z,83.50
2018-03-07T01:02:27.434Z,83.80
2018-03-07T01:04:54.278Z,83.90
2018-03-07T01:07:21.144Z,83.80
2018-03-07T01:09:48.007Z,83.90
2018-03-07T01:12:14.848Z,84.10
2018-03-07T01:14:42.089Z,85.30
2018-03-07T01:17:09.088Z,85.20
2018-03-07T01:19:35.924Z,85.50
2018-03-07T01:22:03.161Z,85.50
2018-03-07T01:24:30.172Z,85.50
2018-03-07T01:26:57.032Z,85.40
2018-03-07T01:29:23.865Z,85.20
2018-03-07T01:31:51.157Z,86.50
2018-03-07T01:34:18.133Z,86.50
2018-03-07T01:36:44.982Z,86.50
2018-03-07T01:39:11.837Z,86.90
2018-03-07T01:41:38.790Z,86.70
2018-03-07T01:44:05.655Z,86.20
2018-03-07T01:46:32.496Z,85.90
2018-03-07T01:48:59.338Z,86.50
2018-03-07T01:51:38.235Z,87.50
2018-03-07T01:54:05.082Z,88.00
2018-03-07T01:56:31.949Z,88.40
2018-03-07T01:58:58.869Z,88.60
2018-03-07T02:01:25.823Z,88.70
2018-03-07T02:03:52.681Z,88.70
2018-03-07T02:06:19.552Z,88.50
2018-03-07T02:08:46.392Z,88.70
2018-03-07T02:11:13.261Z,88.90
2018-03-07T02:13:40.127Z,88.60
2018-03-07T02:16:06.973Z,88.60
2018-03-07T02:18:33.931Z,88.40
2018-03-07T02:21:00.796Z,88.40
2018-03-07T02:23:27.655Z,89.00
2018-03-07T02:25:54.496Z,89.10
2018-03-07T02:28:21.472Z,89.00
2018-03-07T02:30:48.425Z,88.60
2018-03-07T02:33:15.269Z,88.60
2018-03-07T02:35:42.111Z,88.10
2018-03-07T02:38:09.391Z,86.50
2018-03-07T02:40:36.258Z,86.50
2018-03-07T02:43:03.346Z,85.90
2018-03-07T02:45:30.282Z,85.20
2018-03-07T02:47:57.115Z,85.00
2018-03-07T02:50:23.988Z,84.90
2018-03-07T02:52:50.853Z,84.60
2018-03-07T02:55:17.703Z,84.60
2018-03-07T02:57:44.550Z,84.60
2018-03-07T03:00:11.512Z,84.50
2018-03-07T03:02:38.352Z,84.40
2018-03-07T03:05:05.238Z,84.70
2018-03-07T03:07:32.108Z,84.50
2018-03-07T03:09:59.039Z,84.60
2018-03-07T03:12:25.901Z,84.40
2018-03-07T03:14:52.875Z,84.20
2018-03-07T03:17:19.818Z,84.30
2018-03-07T03:19:47.036Z,84.90
2018-03-07T03:22:14.046Z,84.90
2018-03-07T03:24:40.911Z,84.30
2018-03-07T03:27:07.783Z,84.40
2018-03-07T03:29:34.820Z,84.50
2018-03-07T03:32:01.695Z,84.50
2018-03-07T03:34:28.537Z,84.70
2018-03-07T03:36:55.495Z,84.90
2018-03-07T03:39:22.376Z,84.70
2018-03-07T03:41:49.239Z,85.40
2018-03-07T03:44:16.118Z,86.40
2018-03-07T03:46:42.950Z,86.90
2018-03-07T03:49:09.796Z,87.40
2018-03-07T03:51:36.672Z,87.50
2018-03-07T03:54:03.599Z,88.10
2018-03-07T03:56:30.472Z,88.50
2018-03-07T03:58:57.425Z,88.60
2018-03-07T04:01:24.277Z,88.60
2018-03-07T04:03:51.128Z,88.00
2018-03-07T04:06:18.006Z,87.40
2018-03-07T04:08:44.939Z,87.00
2018-03-07T04:13:44.392Z,86.50
2018-03-07T04:16:11.228Z,86.20
2018-03-07T04:18:38.470Z,85.30
2018-03-07T04:21:05.373Z,85.30
2018-03-07T04:23:32.247Z,84.40
2018-03-07T04:25:59.189Z,84.30
2018-03-07T04:28:26.044Z,84.30
2018-03-07T04:30:53.006Z,84.10
2018-03-07T04:33:19.848Z,84.10
2018-03-07T04:35:46.707Z,84.30
2018-03-07T04:38:13.585Z,84.10
2018-03-07T04:40:40.531Z,83.60
2018-03-07T04:43:07.423Z,83.80
2018-03-07T04:45:34.352Z,83.70
2018-03-07T04:48:01.317Z,83.90
2018-03-07T04:50:28.294Z,83.60
2018-03-07T04:52:55.160Z,83.70
2018-03-07T04:55:22.108Z,84.10
2018-03-07T04:57:49.096Z,84.50
2018-03-07T05:00:16.379Z,84.40
2018-03-07T05:02:43.644Z,83.80
2018-03-07T05:05:10.464Z,83.80
2018-03-07T05:07:37.405Z,83.80
2018-03-07T05:10:04.252Z,83.50
2018-03-07T05:12:31.117Z,83.30
2018-03-07T05:14:58.059Z,83.90
2018-03-07T05:17:24.910Z,83.80
2018-03-07T05:19:51.788Z,84.50
2018-03-07T05:22:18.727Z,84.50
2018-03-07T05:24:45.950Z,84.30
2018-03-07T05:27:12.821Z,84.30
2018-03-07T05:29:39.672Z,84.10
2018-03-07T05:32:06.585Z,83.90
2018-03-07T05:34:33.460Z,84.30
2018-03-07T05:37:00.416Z,83.90
2018-03-07T05:39:27.248Z,83.00
2018-03-07T05:41:54.218Z,83.20
2018-03-07T05:44:21.074Z,83.80
2018-03-07T05:46:48.033Z,84.20
2018-03-07T05:49:14.988Z,85.00
2018-03-07T05:51:41.944Z,84.70
2018-03-07T05:54:08.788Z,84.60
2018-03-07T05:56:35.760Z,84.50
2018-03-07T05:59:02.618Z,84.80
2018-03-07T06:01:29.572Z,84.80
2018-03-07T06:03:56.548Z,85.50
2018-03-07T06:06:23.390Z,85.70
2018-03-07T06:08:50.247Z,85.40
2018-03-07T06:11:17.210Z,85.40
2018-03-07T06:13:44.073Z,85.00
2018-03-07T06:16:10.909Z,84.50
2018-03-07T06:18:37.884Z,84.50
2018-03-07T06:21:04.888Z,84.40
2018-03-07T06:23:31.814Z,84.60
2018-03-07T06:25:58.788Z,84.70
2018-03-07T06:28:25.736Z,84.80
2018-03-07T06:30:52.580Z,84.40
2018-03-07T06:33:19.524Z,84.50
2018-03-07T06:35:46.802Z,84.50
2018-03-07T06:38:13.760Z,84.50
2018-03-07T06:40:40.620Z,84.10
2018-03-07T06:43:07.473Z,83.80
2018-03-07T06:45:34.348Z,84.00
2018-03-07T06:48:01.192Z,83.80
2018-03-07T06:50:28.139Z,83.40
2018-03-07T06:52:55.136Z,83.10
2018-03-07T06:55:22.082Z,82.90
2018-03-07T06:57:48.918Z,82.80
2018-03-07T07:00:15.797Z,82.70
2018-03-07T07:02:42.728Z,82.60
2018-03-07T07:05:10.003Z,82.20
2018-03-07T07:07:36.960Z,82.20
2018-03-07T07:10:03.810Z,82.20
2018-03-07T07:12:30.668Z,82.30
2018-03-07T07:14:57.648Z,82.10
2018-03-07T07:17:24.483Z,82.20
2018-03-07T07:19:51.342Z,82.20
2018-03-07T07:22:18.200Z,81.70
2018-03-07T07:24:45.100Z,81.70
2018-03-07T07:27:11.962Z,81.70
2018-03-07T07:29:38.804Z,82.00
2018-03-07T07:32:05.672Z,82.20
2018-03-07T07:34:32.532Z,82.10
2018-03-07T07:36:59.448Z,81.90
2018-03-07T07:39:26.300Z,81.50
2018-03-07T07:41:53.168Z,81.40
2018-03-07T07:44:20.004Z,81.20
2018-03-07T07:46:46.851Z,80.90
2018-03-07T07:49:14.148Z,80.50
2018-03-07T07:51:40.999Z,80.50
2018-03-07T07:54:07.865Z,80.60
2018-03-07T07:56:34.820Z,80.40
2018-03-07T07:59:01.674Z,80.70
2018-03-07T08:01:28.541Z,80.90
2018-03-07T08:03:55.412Z,80.90
2018-03-07T08:06:22.284Z,81.00
2018-03-07T08:08:49.151Z,80.70
2018-03-07T08:11:16.060Z,80.50
2018-03-07T08:13:43.019Z,80.60
2018-03-07T08:16:09.880Z,80.70
2018-03-07T08:18:36.727Z,80.70
2018-03-07T08:21:15.802Z,80.70
2018-03-07T08:23:42.672Z,80.60
2018-03-07T08:26:09.528Z,80.80
2018-03-07T08:28:36.466Z,80.80
2018-03-07T08:31:03.308Z,80.90
2018-03-07T08:33:30.257Z,80.90
2018-03-07T08:35:57.220Z,80.70
2018-03-07T08:38:24.176Z,80.90
2018-03-07T08:40:51.142Z,80.60
2018-03-07T08:43:17.972Z,80.50
2018-03-07T08:45:44.834Z,80.70
2018-03-07T08:48:11.671Z,80.20
2018-03-07T08:50:38.975Z,80.70
2018-03-07T08:53:05.823Z,80.70
2018-03-07T08:55:32.711Z,80.00
2018-03-07T08:57:59.652Z,79.10
2018-03-07T09:00:26.503Z,79.90
2018-03-07T09:02:53.361Z,79.60
2018-03-07T09:05:20.331Z,79.10
2018-03-07T09:07:47.281Z,78.30
2018-03-07T09:10:14.130Z,78.50
2018-03-07T09:12:41.007Z,78.10
2018-03-07T09:15:07.874Z,77.90
2018-03-07T09:17:34.819Z,78.00
2018-03-07T09:20:01.678Z,78.50
2018-03-07T09:22:28.628Z,78.30
2018-03-07T09:24:55.472Z,78.10
2018-03-07T09:27:22.367Z,78.10
2018-03-07T09:29:49.295Z,76.70
2018-03-07T09:32:16.256Z,76.60
2018-03-07T09:34:43.121Z,76.50
2018-03-07T09:37:09.961Z,76.60
2018-03-07T09:39:36.855Z,76.10
2018-03-07T09:42:03.725Z,76.50
2018-03-07T09:44:30.560Z,76.80
2018-03-07T09:46:57.428Z,76.10
2018-03-07T09:49:24.347Z,75.40
2018-03-07T09:51:51.216Z,75.50
2018-03-07T09:54:18.079Z,75.20
2018-03-07T09:56:45.040Z,76.10
2018-03-07T09:59:11.900Z,76.30
2018-03-07T10:01:38.839Z,76.30
2018-03-07T10:04:05.716Z,76.10
2018-03-07T10:06:32.621Z,76.10
2018-03-07T10:08:59.919Z,74.60
2018-03-07T10:11:31.416Z,74.60
2018-03-07T10:13:58.372Z,74.80
2018-03-07T10:16:25.236Z,74.80
2018-03-07T10:18:52.172Z,74.30
2018-03-07T10:21:19.032Z,74.50
2018-03-07T10:23:45.991Z,74.50
2018-03-07T10:26:12.941Z,75.20
2018-03-07T10:28:39.859Z,76.20
2018-03-07T10:31:06.663Z,76.80
2018-03-07T10:33:33.524Z,76.60
2018-03-07T10:36:00.477Z,76.30
2018-03-07T10:38:27.328Z,76.20
2018-03-07T10:40:54.196Z,76.00
2018-03-07T10:43:21.135Z,75.70
2018-03-07T10:45:48.015Z,75.20
2018-03-07T10:48:14.953Z,75.20
2018-03-07T10:50:42.220Z,76.30
2018-03-07T10:53:09.530Z,77.10
2018-03-07T10:55:36.447Z,77.20
2018-03-07T10:58:03.297Z,76.70
2018-03-07T11:00:30.152Z,77.90
2018-03-07T11:02:57.020Z,78.80
2018-03-07T11:05:23.980Z,79.00
2018-03-07T11:07:50.832Z,79.50
2018-03-07T11:10:17.684Z,79.10
2018-03-07T11:12:44.559Z,79.20
2018-03-07T11:15:11.403Z,79.40
2018-03-07T11:17:38.268Z,77.90
2018-03-07T11:20:05.165Z,77.50
2018-03-07T11:22:32.003Z,77.30
2018-03-07T11:24:59.035Z,76.40
2018-03-07T11:27:26.299Z,77.20
2018-03-07T11:29:53.188Z,77.20
2018-03-07T11:32:20.067Z,77.40
2018-03-07T11:34:46.910Z,77.70
2018-03-07T11:37:13.746Z,76.50
2018-03-07T11:39:40.594Z,75.60
2018-03-07T11:42:07.428Z,75.30
2018-03-07T11:44:34.704Z,76.40
2018-03-07T11:47:01.569Z,76.40
2018-03-07T11:49:28.737Z,76.80
2018-03-07T11:51:55.596Z,76.20
2018-03-07T11:54:22.543Z,74.70
2018-03-07T11:56:49.409Z,74.40
2018-03-07T11:59:16.260Z,74.40
2018-03-07T12:01:43.112Z,74.40
2018-03-07T12:04:10.080Z,73.80
2018-03-07T12:06:37.050Z,73.20
2018-03-07T12:09:03.913Z,73.00
2018-03-07T12:11:30.771Z,72.50
2018-03-07T12:13:57.618Z,71.60
2018-03-07T12:16:24.475Z,71.40
2018-03-07T12:18:51.424Z,71.30
2018-03-07T12:21:18.375Z,71.80
2018-03-07T12:23:45.241Z,72.00
2018-03-07T12:26:12.101Z,72.20
2018-03-07T12:28:39.058Z,72.10
2018-03-07T12:31:06.112Z,71.00
2018-03-07T12:33:33.374Z,71.20
2018-03-07T12:36:00.207Z,71.10
2018-03-07T12:38:27.460Z,70.50
2018-03-07T12:40:54.401Z,70.60
2018-03-07T12:43:21.276Z,70.20
2018-03-07T12:45:48.106Z,70.00
2018-03-07T12:48:15.040Z,69.70
2018-03-07T12:50:42.020Z,69.70
2018-03-07T12:53:08.856Z,69.60
2018-03-07T12:55:35.830Z,70.10
2018-03-07T12:58:02.739Z,70.80
2018-03-07T13:00:29.587Z,71.00
2018-03-07T13:02:56.484Z,71.20
2018-03-07T13:05:23.764Z,71.50
2018-03-07T13:07:50.628Z,71.50
2018-03-07T13:10:17.568Z,71.50
2018-03-07T13:12:44.413Z,70.90
2018-03-07T13:15:11.700Z,69.70
2018-03-07T13:17:38.551Z,69.70
2018-03-07T13:20:05.796Z,70.50
2018-03-07T13:22:33.019Z,71.40
2018-03-07T13:24:59.875Z,71.40
2018-03-07T13:27:26.792Z,71.60
2018-03-07T13:29:53.703Z,71.30
2018-03-07T13:32:20.579Z,71.20
2018-03-07T13:34:47.827Z,70.90
2018-03-07T13:37:14.733Z,70.90
2018-03-07T13:39:42.019Z,69.50
2018-03-07T13:42:08.866Z,69.50
2018-03-07T13:44:35.865Z,70.00
2018-03-07T13:47:02.820Z,69.90
2018-03-07T13:49:29.728Z,69.30
2018-03-07T13:51:56.748Z,68.90
2018-03-07T13:54:23.588Z,68.50
2018-03-07T13:56:50.585Z,68.40
2018-03-07T13:59:17.839Z,68.40
2018-03-07T14:01:44.705Z,68.40
2018-03-07T14:04:11.995Z,68.00
2018-03-07T14:06:38.865Z,67.90
2018-03-07T14:09:05.752Z,67.80
2018-03-07T14:11:32.630Z,67.60
2018-03-07T14:13:59.561Z,67.40
2018-03-07T14:16:26.441Z,67.70
2018-03-07T14:18:53.310Z,68.10
2018-03-07T14:21:20.147Z,68.10
2018-03-07T14:23:47.029Z,67.60
2018-03-07T14:26:13.880Z,67.60
2018-03-07T14:28:40.782Z,66.70
2018-03-07T14:31:07.628Z,66.70
2018-03-07T14:33:34.710Z,66.10
2018-03-07T14:36:01.644Z,66.90
2018-03-07T14:38:28.493Z,67.20
2018-03-07T14:40:55.876Z,67.50
2018-03-07T14:43:22.832Z,67.50
2018-03-07T14:45:49.675Z,67.70
2018-03-07T14:48:16.579Z,67.50
2018-03-07T14:50:43.420Z,67.70
2018-03-07T14:53:10.372Z,67.90
2018-03-07T14:55:37.636Z,68.30
2018-03-07T14:58:04.487Z,68.30
2018-03-07T15:00:31.549Z,68.70
2018-03-07T15:03:09.044Z,69.30
2018-03-07T15:05:36.458Z,69.10
2018-03-07T15:08:04.389Z,69.10
2018-03-07T15:10:31.404Z,69.20
2018-03-07T15:12:58.290Z,69.50
2018-03-07T15:15:25.604Z,69.80
2018-03-07T15:17:52.564Z,70.00
2018-03-07T15:20:19.420Z,69.90
2018-03-07T15:22:46.281Z,70.50
2018-03-07T15:25:13.299Z,70.50
2018-03-07T15:27:40.211Z,71.00
2018-03-07T15:30:07.451Z,71.50
2018-03-07T15:32:34.400Z,76.30
2018-03-07T15:35:01.645Z,79.90
2018-03-07T15:37:28.910Z,80.50
2018-03-07T15:39:55.801Z,80.50
2018-03-07T15:42:23.020Z,79.40
2018-03-07T15:44:49.936Z,79.40
2018-03-07T15:47:16.891Z,79.40
2018-03-07T15:49:43.736Z,79.00
2018-03-07T15:52:10.758Z,78.70
2018-03-07T15:54:38.071Z,78.80
2018-03-07T15:57:05.071Z,78.80
2018-03-07T15:59:33.932Z,79.60
2018-03-07T16:02:00.844Z,80.20
2018-03-07T16:04:27.755Z,81.10
2018-03-07T16:06:54.607Z,81.00
2018-03-07T16:09:21.555Z,81.00
2018-03-07T16:11:48.419Z,81.30
2018-03-07T16:14:15.272Z,81.50
2018-03-07T16:16:42.170Z,81.30
2018-03-07T16:19:09.040Z,81.30
2018-03-07T16:21:35.988Z,81.00
2018-03-07T16:24:02.975Z,80.90
2018-03-07T16:26:29.824Z,81.10
2018-03-07T16:28:56.733Z,80.90
2018-03-07T16:31:23.584Z,80.80
2018-03-07T16:33:50.459Z,81.00
2018-03-07T16:36:17.456Z,80.50
2018-03-07T16:38:44.300Z,80.30
2018-03-07T16:41:11.148Z,80.30
2018-03-07T16:43:38.178Z,79.90
2018-03-07T16:46:05.444Z,79.10
2018-03-07T16:48:32.299Z,79.10
2018-03-07T16:50:59.143Z,78.70
2018-03-07T16:53:26.406Z,78.20
2018-03-07T16:55:53.705Z,77.50
2018-03-07T16:58:20.545Z,77.50
2018-03-07T17:00:47.387Z,77.50
2018-03-07T17:03:14.644Z,76.90
2018-03-07T17:05:41.940Z,76.50
2018-03-07T17:08:08.810Z,76.50
2018-03-07T17:10:35.724Z,76.50
2018-03-07T17:13:02.622Z,76.50
2018-03-07T17:15:29.478Z,76.10
2018-03-07T17:17:56.321Z,75.80
2018-03-07T17:20:23.213Z,76.10
2018-03-07T17:22:50.052Z,76.10
2018-03-07T17:25:16.898Z,76.30
2018-03-07T17:27:43.792Z,75.90
2018-03-07T17:30:10.651Z,75.90
2018-03-07T17:32:37.579Z,75.90
2018-03-07T17:35:04.531Z,75.90
2018-03-07T17:37:31.808Z,75.90
2018-03-07T17:39:58.751Z,75.90
2018-03-07T17:42:25.603Z,76.00
2018-03-07T17:44:52.452Z,76.70
2018-03-07T17:47:19.748Z,77.10
2018-03-07T17:49:46.923Z,77.10
2018-03-07T17:52:13.759Z,76.80
2018-03-07T17:54:40.628Z,76.90
2018-03-07T17:57:07.505Z,77.00
2018-03-07T17:59:34.408Z,77.00
2018-03-07T18:02:01.708Z,77.20
2018-03-07T18:04:28.593Z,77.20
2018-03-07T18:06:55.540Z,77.20
2018-03-07T18:09:22.399Z,77.10
2018-03-07T18:11:49.261Z,76.90
2018-03-07T18:14:16.104Z,76.60
2018-03-07T18:16:43.044Z,76.30
2018-03-07T18:19:10.200Z,76.30
2018-03-07T18:21:37.632Z,76.50
2018-03-07T18:24:04.504Z,76.50
2018-03-07T18:26:31.812Z,76.30
2018-03-07T18:28:58.854Z,76.30
2018-03-07T18:31:26.087Z,76.60
2018-03-07T18:33:52.986Z,76.60
2018-03-07T18:36:19.834Z,76.50
2018-03-07T18:38:46.711Z,76.20
2018-03-07T18:41:13.540Z,76.30
2018-03-07T18:43:40.386Z,75.80
2018-03-07T18:46:07.651Z,76.20
2018-03-07T18:48:35.062Z,76.30
2018-03-07T18:51:02.061Z,76.30
2018-03-07T18:53:28.983Z,76.20
2018-03-07T18:55:55.820Z,75.50
2018-03-07T18:58:22.742Z,75.90
2018-03-07T19:00:49.812Z,76.30
2018-03-07T19:03:17.035Z,76.80
2018-03-07T19:05:43.892Z,76.80
2018-03-07T19:08:10.790Z,76.80
2018-03-07T19:10:38.892Z,76.60
2018-03-07T19:13:05.814Z,76.60
2018-03-07T19:15:32.921Z,76.90
2018-03-07T19:18:00.151Z,77.10
2018-03-07T19:20:27.044Z,77.10
2018-03-07T19:22:53.971Z,77.50
2018-03-07T19:25:20.809Z,77.00
2018-03-07T19:27:47.724Z,76.90
2018-03-07T19:30:14.679Z,77.10
2018-03-07T19:32:41.651Z,76.90
2018-03-07T19:35:08.507Z,77.70
2018-03-07T19:37:35.368Z,77.90
2018-03-07T19:40:02.344Z,77.50
2018-03-07T19:42:29.218Z,77.30
2018-03-07T19:44:56.079Z,77.40
2018-03-07T19:47:22.987Z,77.20
2018-03-07T19:49:49.885Z,76.70
2018-03-07T19:52:16.755Z,76.80
2018-03-07T19:54:43.710Z,76.70
2018-03-07T19:57:10.593Z,76.50
2018-03-07T19:59:37.484Z,76.50
2018-03-07T20:02:04.411Z,76.30
2018-03-07T20:04:31.803Z,76.50
2018-03-07T20:06:58.680Z,76.50
2018-03-07T20:09:25.663Z,76.30
2018-03-07T20:11:52.456Z,76.40
2018-03-07T20:14:19.701Z,76.60
2018-03-07T20:16:46.603Z,76.60
2018-03-07T20:19:13.445Z,76.60
2018-03-07T20:21:40.309Z,76.90
2018-03-07T20:24:07.186Z,76.80
2018-03-07T20:26:34.015Z,77.20
2018-03-07T20:29:00.857Z,77.30
2018-03-07T20:31:28.147Z,76.40
2018-03-07T20:33:55.012Z,76.50
2018-03-07T20:36:21.918Z,76.60
2018-03-07T20:38:48.835Z,77.00
2018-03-07T20:41:15.686Z,76.80
2018-03-07T20:43:42.528Z,76.70
2018-03-07T20:46:09.439Z,76.40
2018-03-07T20:48:36.271Z,76.30
2018-03-07T20:51:03.144Z,76.50
2018-03-07T20:53:30.014Z,76.20
2018-03-07T20:55:56.879Z,76.40
2018-03-07T20:58:23.724Z,76.40
2018-03-07T21:00:50.639Z,76.30
2018-03-07T21:03:17.604Z,76.40
2018-03-07T21:05:44.608Z,76.00
2018-03-07T21:08:11.628Z,76.30
2018-03-07T21:10:38.477Z,76.50
2018-03-07T21:13:05.439Z,76.30
2018-03-07T21:15:32.297Z,76.20
2018-03-07T21:17:59.180Z,76.00
2018-03-07T21:20:26.127Z,76.00
2018-03-07T21:22:53.001Z,75.80
2018-03-07T21:25:19.932Z,75.70
2018-03-07T21:27:46.777Z,75.70
2018-03-07T21:30:13.735Z,75.50
2018-03-07T21:32:40.574Z,75.50
2018-03-07T21:35:07.876Z,76.90
2018-03-07T21:37:34.840Z,76.90
2018-03-07T21:40:01.795Z,76.70
2018-03-07T21:42:28.652Z,76.10
2018-03-07T21:44:55.491Z,76.10
2018-03-07T21:47:22.355Z,76.30
2018-03-07T21:49:49.212Z,76.00
2018-03-07T21:52:16.183Z,75.90
2018-03-07T21:54:43.059Z,75.50
2018-03-07T21:57:09.924Z,75.40
2018-03-07T21:59:36.817Z,75.60
2018-03-07T22:02:04.113Z,75.80
2018-03-07T22:04:30.959Z,75.80
2018-03-07T22:06:57.920Z,76.00
2018-03-07T22:09:24.751Z,76.50
2018-03-07T22:11:52.115Z,77.10
2018-03-07T22:14:18.960Z,77.10
2018-03-07T22:16:45.840Z,77.20
2018-03-07T22:19:13.092Z,77.80
2018-03-07T22:21:39.986Z,77.80
2018-03-07T22:24:07.252Z,77.70
2018-03-07T22:26:34.115Z,77.70
2018-03-07T22:29:01.146Z,78.30
2018-03-07T22:31:28.049Z,78.30
2018-03-07T22:33:54.900Z,78.20
2018-03-07T22:36:21.838Z,78.40
2018-03-07T22:38:49.106Z,78.80
2018-03-07T22:41:16.006Z,78.70
2018-03-07T22:43:42.860Z,78.70
2018-03-07T22:46:10.047Z,78.40
2018-03-07T22:48:36.896Z,78.40
2018-03-07T22:51:03.818Z,77.80
2018-03-07T22:53:30.864Z,78.40
2018-03-07T22:55:57.707Z,78.30
2018-03-07T22:58:24.979Z,78.80
2018-03-07T23:00:51.832Z,78.80
2018-03-07T23:03:18.700Z,78.40
2018-03-07T23:05:45.547Z,78.50
2018-03-07T23:08:12.419Z,78.90
2018-03-07T23:10:39.374Z,79.50
2018-03-07T23:13:06.315Z,79.30
2018-03-07T23:15:33.600Z,79.20
2018-03-07T23:18:00.451Z,79.20
2018-03-07T23:20:27.286Z,79.00
2018-03-07T23:22:54.536Z,78.70
2018-03-07T23:25:21.485Z,78.70
2018-03-07T23:27:48.392Z,78.40
2018-03-07T23:30:15.252Z,78.00
2018-03-07T23:32:42.100Z,77.50
2018-03-07T23:35:08.959Z,77.60
2018-03-07T23:37:35.803Z,77.90
2018-03-07T23:40:03.042Z,77.80
2018-03-07T23:42:29.867Z,77.80
2018-03-07T23:44:56.807Z,77.50
2018-03-07T23:47:23.651Z,77.40
2018-03-07T23:49:50.484Z,76.70
2018-03-07T23:52:17.740Z,76.80
2018-03-07T23:54:44.568Z,76.80
2018-03-07T23:57:11.432Z,76.60
2018-03-07T23:59:38.267Z,76.10
